DLH6CH EDDF-EGLL
Flight info
| Callsign | DLH6CH |
|---|---|
| Flight time | 1h 42m |
| Altitude | 38000 |
| Route | OBOKA3L OBOKA Z29 TORNU DCT ABNED L980 LOGAN |
| Aircraft | A320/M-SDE2E3FGIJ1LORWXYZ/HB1 |
Departure
| Time | 2026-05-06 03:03 |
|---|---|
| Airport | Frankfurt Main Airport (EDDF) |
Arrival
| Time | 2026-05-06 04:45 |
|---|---|
| Airport | London Heathrow Airport (EGLL) |
| Time | Latitude | Longitude | Altitude | Speed | Heading |
|---|---|---|---|---|---|
| 2026-05-06 02:35 | 50.04403 | 8.56222 | 362 ft | 0 kts | 159° |
| 2026-05-06 02:54 | 50.04404 | 8.56221 | 356 ft | 2 kts | 160° |
| 2026-05-06 02:54 | 50.04429 | 8.56208 | 360 ft | 4 kts | 165° |
| 2026-05-06 02:54 | 50.04455 | 8.56201 | 359 ft | 4 kts | 185° |
| 2026-05-06 02:54 | 50.04475 | 8.56213 | 363 ft | 4 kts | 246° |
| 2026-05-06 02:55 | 50.04471 | 8.56194 | 357 ft | 4 kts | 250° |
| 2026-05-06 02:55 | 50.04462 | 8.56154 | 356 ft | 4 kts | 250° |
| 2026-05-06 02:55 | 50.04454 | 8.56119 | 363 ft | 1 kts | 249° |
| 2026-05-06 02:55 | 50.04453 | 8.56118 | 363 ft | 0 kts | 249° |
| 2026-05-06 02:57 | 50.04447 | 8.56090 | 359 ft | 4 kts | 249° |
| 2026-05-06 02:57 | 50.04433 | 8.56055 | 360 ft | 6 kts | 228° |
| 2026-05-06 02:58 | 50.04370 | 8.56040 | 361 ft | 14 kts | 165° |
| 2026-05-06 02:58 | 50.04270 | 8.56048 | 357 ft | 15 kts | 223° |
| 2026-05-06 02:58 | 50.04227 | 8.55889 | 356 ft | 17 kts | 250° |
| 2026-05-06 02:58 | 50.04182 | 8.55701 | 358 ft | 20 kts | 250° |
| 2026-05-06 02:59 | 50.04132 | 8.55493 | 354 ft | 21 kts | 249° |
| 2026-05-06 02:59 | 50.04078 | 8.55274 | 360 ft | 22 kts | 249° |
| 2026-05-06 02:59 | 50.04022 | 8.55040 | 361 ft | 26 kts | 250° |
| 2026-05-06 02:59 | 50.03946 | 8.54738 | 355 ft | 31 kts | 248° |
| 2026-05-06 03:00 | 50.03872 | 8.54415 | 353 ft | 32 kts | 249° |
| 2026-05-06 03:00 | 50.03775 | 8.54113 | 352 ft | 32 kts | 246° |
| 2026-05-06 03:00 | 50.03696 | 8.53795 | 344 ft | 32 kts | 249° |
| 2026-05-06 03:00 | 50.03613 | 8.53472 | 338 ft | 32 kts | 249° |
| 2026-05-06 03:01 | 50.03534 | 8.53139 | 336 ft | 32 kts | 249° |
| 2026-05-06 03:01 | 50.03454 | 8.52822 | 334 ft | 28 kts | 248° |
| 2026-05-06 03:01 | 50.03410 | 8.52646 | 333 ft | 16 kts | 249° |
| 2026-05-06 03:01 | 50.03319 | 8.52593 | 333 ft | 16 kts | 179° |
| 2026-05-06 03:02 | 50.03173 | 8.52596 | 335 ft | 41 kts | 180° |
| 2026-05-06 03:02 | 50.02645 | 8.52601 | 332 ft | 107 kts | 179° |
| 2026-05-06 03:02 | 50.01722 | 8.52609 | 335 ft | 156 kts | 179° |
| 2026-05-06 03:02 | 50.00574 | 8.52656 | 736 ft | 170 kts | 177° |
| 2026-05-06 03:03 | 49.99364 | 8.52730 | 1423 ft | 174 kts | 182° |
| 2026-05-06 03:03 | 49.98119 | 8.52794 | 1937 ft | 189 kts | 184° |
| 2026-05-06 03:03 | 49.96722 | 8.52862 | 2231 ft | 213 kts | 184° |
| 2026-05-06 03:03 | 49.95202 | 8.52945 | 2930 ft | 222 kts | 183° |
| 2026-05-06 03:04 | 49.93666 | 8.53044 | 3760 ft | 225 kts | 182° |
| 2026-05-06 03:04 | 49.92075 | 8.53151 | 4652 ft | 228 kts | 182° |
| 2026-05-06 03:04 | 49.90484 | 8.53263 | 5465 ft | 231 kts | 182° |
| 2026-05-06 03:04 | 49.88894 | 8.53249 | 6257 ft | 231 kts | 194° |
| 2026-05-06 03:05 | 49.87410 | 8.52382 | 7030 ft | 229 kts | 216° |
| 2026-05-06 03:05 | 49.86230 | 8.50617 | 7423 ft | 248 kts | 238° |
| 2026-05-06 03:05 | 49.85340 | 8.48247 | 8062 ft | 259 kts | 240° |
| 2026-05-06 03:05 | 49.84421 | 8.45811 | 8878 ft | 263 kts | 239° |
| 2026-05-06 03:06 | 49.83484 | 8.43357 | 9719 ft | 267 kts | 239° |
| 2026-05-06 03:06 | 49.82516 | 8.40833 | 10259 ft | 281 kts | 239° |
| 2026-05-06 03:06 | 49.81481 | 8.38108 | 10533 ft | 303 kts | 242° |
| 2026-05-06 03:06 | 49.80893 | 8.34974 | 11093 ft | 315 kts | 265° |
| 2026-05-06 03:07 | 49.81263 | 8.31561 | 11781 ft | 326 kts | 291° |
| 2026-05-06 03:07 | 49.82620 | 8.28697 | 12471 ft | 339 kts | 315° |
| 2026-05-06 03:07 | 49.84449 | 8.26327 | 13186 ft | 344 kts | 317° |
| 2026-05-06 03:07 | 49.86324 | 8.23967 | 13868 ft | 349 kts | 318° |
| 2026-05-06 03:08 | 49.88218 | 8.21594 | 14500 ft | 352 kts | 318° |
| 2026-05-06 03:08 | 49.90104 | 8.19223 | 15152 ft | 355 kts | 317° |
| 2026-05-06 03:08 | 49.92026 | 8.16794 | 15776 ft | 359 kts | 317° |
| 2026-05-06 03:08 | 49.93970 | 8.14325 | 16422 ft | 362 kts | 318° |
| 2026-05-06 03:09 | 49.95927 | 8.11827 | 17048 ft | 366 kts | 318° |
| 2026-05-06 03:09 | 49.97237 | 8.10154 | 17460 ft | 368 kts | 318° |
| 2026-05-06 03:09 | 49.99224 | 8.07613 | 18075 ft | 372 kts | 318° |
| 2026-05-06 03:09 | 50.01913 | 8.04175 | 18780 ft | 377 kts | 318° |
| 2026-05-06 03:10 | 50.03258 | 8.02454 | 19138 ft | 378 kts | 318° |
| 2026-05-06 03:10 | 50.05296 | 7.99843 | 19680 ft | 381 kts | 318° |
| 2026-05-06 03:10 | 50.07352 | 7.97205 | 20218 ft | 384 kts | 317° |
| 2026-05-06 03:10 | 50.09423 | 7.94545 | 20737 ft | 387 kts | 317° |
| 2026-05-06 03:11 | 50.11510 | 7.91867 | 21252 ft | 389 kts | 317° |
| 2026-05-06 03:11 | 50.13605 | 7.89175 | 21742 ft | 392 kts | 317° |
| 2026-05-06 03:11 | 50.15718 | 7.86453 | 22257 ft | 395 kts | 318° |
| 2026-05-06 03:11 | 50.17845 | 7.83704 | 22693 ft | 399 kts | 318° |
| 2026-05-06 03:12 | 50.19989 | 7.80929 | 23160 ft | 403 kts | 320° |
| 2026-05-06 03:12 | 50.22153 | 7.78128 | 23595 ft | 405 kts | 320° |
| 2026-05-06 03:12 | 50.24344 | 7.75334 | 23989 ft | 408 kts | 323° |
| 2026-05-06 03:12 | 50.26750 | 7.72980 | 24372 ft | 411 kts | 333° |
| 2026-05-06 03:13 | 50.29373 | 7.71135 | 24756 ft | 414 kts | 336° |
| 2026-05-06 03:13 | 50.31989 | 7.69356 | 25130 ft | 416 kts | 336° |
| 2026-05-06 03:13 | 50.34660 | 7.67534 | 25503 ft | 419 kts | 336° |
| 2026-05-06 03:13 | 50.37334 | 7.65705 | 25878 ft | 422 kts | 336° |
| 2026-05-06 03:14 | 50.40024 | 7.63863 | 26239 ft | 424 kts | 336° |
| 2026-05-06 03:14 | 50.42745 | 7.61998 | 26587 ft | 427 kts | 336° |
| 2026-05-06 03:14 | 50.45469 | 7.60127 | 26951 ft | 430 kts | 336° |
| 2026-05-06 03:14 | 50.48222 | 7.58227 | 27291 ft | 432 kts | 336° |
| 2026-05-06 03:15 | 50.50977 | 7.56319 | 27641 ft | 435 kts | 336° |
| 2026-05-06 03:15 | 50.53762 | 7.54388 | 27987 ft | 438 kts | 336° |
| 2026-05-06 03:15 | 50.56500 | 7.52244 | 28327 ft | 440 kts | 329° |
| 2026-05-06 03:15 | 50.59077 | 7.49631 | 28652 ft | 443 kts | 327° |
| 2026-05-06 03:16 | 50.61657 | 7.46975 | 28981 ft | 445 kts | 327° |
| 2026-05-06 03:16 | 50.64265 | 7.44302 | 29355 ft | 447 kts | 327° |
| 2026-05-06 03:16 | 50.66882 | 7.41624 | 29716 ft | 448 kts | 327° |
| 2026-05-06 03:16 | 50.69496 | 7.38943 | 30007 ft | 450 kts | 327° |
| 2026-05-06 03:17 | 50.72023 | 7.36030 | 30260 ft | 452 kts | 319° |
| 2026-05-06 03:17 | 50.74259 | 7.32523 | 30517 ft | 453 kts | 309° |
| 2026-05-06 03:17 | 50.76126 | 7.28529 | 30765 ft | 454 kts | 301° |
| 2026-05-06 03:17 | 50.77641 | 7.24138 | 31013 ft | 455 kts | 296° |
| 2026-05-06 03:18 | 50.79069 | 7.19737 | 31315 ft | 455 kts | 296° |
| 2026-05-06 03:18 | 50.80532 | 7.15238 | 31681 ft | 454 kts | 296° |
| 2026-05-06 03:18 | 50.81960 | 7.10851 | 32026 ft | 454 kts | 296° |
| 2026-05-06 03:18 | 50.83407 | 7.06406 | 32380 ft | 453 kts | 296° |
| 2026-05-06 03:19 | 50.84842 | 7.01982 | 32732 ft | 453 kts | 296° |
| 2026-05-06 03:19 | 50.86276 | 6.97536 | 33066 ft | 452 kts | 296° |
| 2026-05-06 03:19 | 50.87708 | 6.93091 | 33420 ft | 452 kts | 296° |
| 2026-05-06 03:19 | 50.89118 | 6.88712 | 33779 ft | 451 kts | 296° |
| 2026-05-06 03:20 | 50.91962 | 6.79849 | 34369 ft | 450 kts | 296° |
| 2026-05-06 03:20 | 50.93373 | 6.75439 | 34652 ft | 449 kts | 296° |
| 2026-05-06 03:20 | 50.94787 | 6.71012 | 34933 ft | 448 kts | 295° |
| 2026-05-06 03:21 | 50.96192 | 6.66613 | 35199 ft | 448 kts | 295° |
| 2026-05-06 03:21 | 50.97599 | 6.62195 | 35467 ft | 447 kts | 295° |
| 2026-05-06 03:21 | 50.98999 | 6.57793 | 35722 ft | 447 kts | 295° |
| 2026-05-06 03:21 | 51.00399 | 6.53376 | 35938 ft | 447 kts | 295° |
| 2026-05-06 03:22 | 51.01790 | 6.48977 | 36173 ft | 446 kts | 295° |
| 2026-05-06 03:22 | 51.03183 | 6.44562 | 36424 ft | 446 kts | 295° |
| 2026-05-06 03:22 | 51.04567 | 6.40173 | 36644 ft | 445 kts | 295° |
| 2026-05-06 03:22 | 51.05955 | 6.35768 | 36891 ft | 444 kts | 295° |
| 2026-05-06 03:23 | 51.07338 | 6.31366 | 37119 ft | 444 kts | 294° |
| 2026-05-06 03:23 | 51.08717 | 6.26974 | 37341 ft | 443 kts | 294° |
| 2026-05-06 03:23 | 51.10074 | 6.22649 | 37555 ft | 443 kts | 294° |
| 2026-05-06 03:23 | 51.11445 | 6.18263 | 37756 ft | 443 kts | 294° |
| 2026-05-06 03:24 | 51.14051 | 6.09393 | 37813 ft | 439 kts | 286° |
| 2026-05-06 03:24 | 51.15633 | 6.00025 | 37817 ft | 438 kts | 282° |
| 2026-05-06 03:25 | 51.17156 | 5.90606 | 37822 ft | 438 kts | 282° |
| 2026-05-06 03:25 | 51.18870 | 5.81294 | 37821 ft | 440 kts | 291° |
| 2026-05-06 03:26 | 51.21251 | 5.72366 | 37823 ft | 440 kts | 291° |
| 2026-05-06 03:26 | 51.23618 | 5.63368 | 37842 ft | 440 kts | 290° |
| 2026-05-06 03:27 | 51.25974 | 5.54353 | 37851 ft | 440 kts | 290° |
| 2026-05-06 03:27 | 51.28341 | 5.45312 | 37850 ft | 440 kts | 290° |
| 2026-05-06 03:28 | 51.30699 | 5.36283 | 37849 ft | 440 kts | 290° |
| 2026-05-06 03:28 | 51.33032 | 5.27285 | 37845 ft | 440 kts | 290° |
| 2026-05-06 03:29 | 51.35368 | 5.18239 | 37858 ft | 440 kts | 290° |
| 2026-05-06 03:29 | 51.37700 | 5.09172 | 37864 ft | 439 kts | 290° |
| 2026-05-06 03:30 | 51.40018 | 5.00123 | 37873 ft | 439 kts | 290° |
| 2026-05-06 03:30 | 51.42327 | 4.91067 | 37875 ft | 439 kts | 290° |
| 2026-05-06 03:31 | 51.44614 | 4.82068 | 37876 ft | 439 kts | 290° |
| 2026-05-06 03:31 | 51.46920 | 4.72975 | 37880 ft | 439 kts | 290° |
| 2026-05-06 03:32 | 51.49211 | 4.63899 | 37880 ft | 439 kts | 290° |
| 2026-05-06 03:32 | 51.51493 | 4.54822 | 37880 ft | 438 kts | 290° |
| 2026-05-06 03:33 | 51.53758 | 4.45736 | 37877 ft | 438 kts | 290° |
| 2026-05-06 03:33 | 51.56001 | 4.36705 | 37874 ft | 438 kts | 289° |
| 2026-05-06 03:34 | 51.58274 | 4.27544 | 37875 ft | 438 kts | 290° |
| 2026-05-06 03:34 | 51.60515 | 4.18488 | 37880 ft | 438 kts | 289° |
| 2026-05-06 03:35 | 51.62759 | 4.09382 | 37881 ft | 438 kts | 289° |
| 2026-05-06 03:35 | 51.64994 | 4.00264 | 37888 ft | 438 kts | 290° |
| 2026-05-06 03:36 | 51.67219 | 3.91138 | 37896 ft | 438 kts | 289° |
| 2026-05-06 03:36 | 51.69431 | 3.82050 | 37911 ft | 438 kts | 289° |
| 2026-05-06 03:37 | 51.71651 | 3.72890 | 37912 ft | 437 kts | 289° |
| 2026-05-06 03:37 | 51.73859 | 3.63732 | 37924 ft | 437 kts | 289° |
| 2026-05-06 03:38 | 51.76040 | 3.54626 | 37924 ft | 437 kts | 289° |
| 2026-05-06 04:09 | 51.78194 | 3.46047 | 37898 ft | 436 kts | 290° |
| 2026-05-06 04:09 | 51.80345 | 3.36889 | 38000 ft | 434 kts | 288° |
| 2026-05-06 04:10 | 51.82434 | 3.27787 | 37913 ft | 430 kts | 288° |
| 2026-05-06 04:10 | 51.84271 | 3.18601 | 37913 ft | 429 kts | 277° |
| 2026-05-06 04:11 | 51.84395 | 3.09036 | 37919 ft | 427 kts | 262° |
| 2026-05-06 04:11 | 51.83775 | 2.99509 | 37915 ft | 425 kts | 263° |
| 2026-05-06 04:12 | 51.83157 | 2.90022 | 37919 ft | 425 kts | 263° |
| 2026-05-06 04:12 | 51.82526 | 2.80563 | 37867 ft | 427 kts | 262° |
| 2026-05-06 04:13 | 51.82204 | 2.75800 | 37468 ft | 428 kts | 262° |
| 2026-05-06 04:13 | 51.81877 | 2.71017 | 36870 ft | 426 kts | 262° |
| 2026-05-06 04:13 | 51.81551 | 2.66248 | 36173 ft | 427 kts | 262° |
| 2026-05-06 04:13 | 51.81225 | 2.61482 | 35648 ft | 424 kts | 262° |
| 2026-05-06 04:14 | 51.80907 | 2.56826 | 35161 ft | 420 kts | 263° |
| 2026-05-06 04:14 | 51.80585 | 2.52135 | 34647 ft | 418 kts | 262° |
| 2026-05-06 04:14 | 51.80263 | 2.47496 | 34140 ft | 415 kts | 261° |
| 2026-05-06 04:14 | 51.79937 | 2.42862 | 33583 ft | 413 kts | 261° |
| 2026-05-06 04:15 | 51.79611 | 2.38290 | 33083 ft | 408 kts | 262° |
| 2026-05-06 04:15 | 51.79286 | 2.33760 | 32586 ft | 404 kts | 262° |
| 2026-05-06 04:15 | 51.78957 | 2.29261 | 32104 ft | 400 kts | 261° |
| 2026-05-06 04:15 | 51.78632 | 2.24826 | 31615 ft | 397 kts | 261° |
| 2026-05-06 04:16 | 51.78314 | 2.20407 | 31147 ft | 393 kts | 262° |
| 2026-05-06 04:16 | 51.78036 | 2.16038 | 30677 ft | 390 kts | 262° |
| 2026-05-06 04:16 | 51.77789 | 2.11679 | 30224 ft | 387 kts | 263° |
| 2026-05-06 04:16 | 51.77554 | 2.07354 | 29733 ft | 384 kts | 263° |
| 2026-05-06 04:17 | 51.77322 | 2.03137 | 29301 ft | 379 kts | 263° |
| 2026-05-06 04:17 | 51.77084 | 1.98939 | 28874 ft | 374 kts | 263° |
| 2026-05-06 04:17 | 51.76839 | 1.94779 | 28458 ft | 369 kts | 263° |
| 2026-05-06 04:17 | 51.76589 | 1.90674 | 28051 ft | 364 kts | 263° |
| 2026-05-06 04:18 | 51.76341 | 1.86641 | 27646 ft | 360 kts | 262° |
| 2026-05-06 04:18 | 51.76096 | 1.82652 | 27237 ft | 356 kts | 262° |
| 2026-05-06 04:18 | 51.75854 | 1.78685 | 26834 ft | 352 kts | 263° |
| 2026-05-06 04:18 | 51.75614 | 1.74756 | 26416 ft | 349 kts | 263° |
| 2026-05-06 04:19 | 51.75374 | 1.70879 | 26014 ft | 347 kts | 264° |
| 2026-05-06 04:19 | 51.75131 | 1.67012 | 25591 ft | 345 kts | 263° |
| 2026-05-06 04:19 | 51.74889 | 1.63185 | 25157 ft | 343 kts | 263° |
| 2026-05-06 04:19 | 51.74645 | 1.59356 | 24714 ft | 343 kts | 263° |
| 2026-05-06 04:20 | 51.74398 | 1.55520 | 24186 ft | 351 kts | 263° |
| 2026-05-06 04:20 | 51.74143 | 1.51588 | 23666 ft | 352 kts | 264° |
| 2026-05-06 04:20 | 51.73890 | 1.47658 | 23077 ft | 353 kts | 264° |
| 2026-05-06 04:20 | 51.73636 | 1.43709 | 22546 ft | 352 kts | 264° |
| 2026-05-06 04:21 | 51.73381 | 1.39772 | 22011 ft | 352 kts | 264° |
| 2026-05-06 04:21 | 51.73125 | 1.35861 | 21488 ft | 351 kts | 264° |
| 2026-05-06 04:21 | 51.72868 | 1.31934 | 20968 ft | 351 kts | 264° |
| 2026-05-06 04:21 | 51.72612 | 1.28008 | 20439 ft | 351 kts | 264° |
| 2026-05-06 04:22 | 51.72360 | 1.24138 | 19925 ft | 351 kts | 265° |
| 2026-05-06 04:22 | 51.72102 | 1.20179 | 19467 ft | 349 kts | 265° |
| 2026-05-06 04:22 | 51.71851 | 1.16342 | 18937 ft | 350 kts | 265° |
| 2026-05-06 04:23 | 51.71326 | 1.08607 | 18126 ft | 345 kts | 265° |
| 2026-05-06 04:23 | 51.71062 | 1.04797 | 17482 ft | 338 kts | 265° |
| 2026-05-06 04:23 | 51.70803 | 1.01057 | 16737 ft | 333 kts | 265° |
| 2026-05-06 04:23 | 51.70551 | 0.97405 | 16267 ft | 321 kts | 264° |
| 2026-05-06 04:24 | 51.70307 | 0.93868 | 15819 ft | 314 kts | 265° |
| 2026-05-06 04:24 | 51.70067 | 0.90371 | 15396 ft | 315 kts | 264° |
| 2026-05-06 04:24 | 51.69825 | 0.86848 | 14971 ft | 316 kts | 265° |
| 2026-05-06 04:24 | 51.69580 | 0.83335 | 14544 ft | 317 kts | 264° |
| 2026-05-06 04:25 | 51.69333 | 0.79803 | 14107 ft | 317 kts | 265° |
| 2026-05-06 04:25 | 51.69081 | 0.76271 | 13673 ft | 318 kts | 265° |
| 2026-05-06 04:25 | 51.68827 | 0.72716 | 13214 ft | 318 kts | 265° |
| 2026-05-06 04:25 | 51.68578 | 0.69221 | 12788 ft | 317 kts | 264° |
| 2026-05-06 04:26 | 51.68327 | 0.65686 | 12348 ft | 316 kts | 264° |
| 2026-05-06 04:26 | 51.68076 | 0.62179 | 11920 ft | 315 kts | 265° |
| 2026-05-06 04:26 | 51.67822 | 0.58666 | 11493 ft | 314 kts | 265° |
| 2026-05-06 04:26 | 51.67569 | 0.55180 | 11092 ft | 313 kts | 265° |
| 2026-05-06 04:27 | 51.67315 | 0.51696 | 10665 ft | 313 kts | 265° |
| 2026-05-06 04:27 | 51.67062 | 0.48242 | 10263 ft | 311 kts | 264° |
| 2026-05-06 04:27 | 51.66810 | 0.44832 | 10118 ft | 300 kts | 265° |
| 2026-05-06 04:27 | 51.66569 | 0.41554 | 9761 ft | 292 kts | 265° |
| 2026-05-06 04:28 | 51.66333 | 0.38311 | 9228 ft | 289 kts | 265° |
| 2026-05-06 04:28 | 51.66099 | 0.35108 | 8714 ft | 285 kts | 265° |
| 2026-05-06 04:28 | 51.65870 | 0.31973 | 8227 ft | 280 kts | 266° |
| 2026-05-06 04:28 | 51.65641 | 0.28872 | 7829 ft | 277 kts | 266° |
| 2026-05-06 04:29 | 51.65411 | 0.25836 | 7453 ft | 275 kts | 266° |
| 2026-05-06 04:29 | 51.65180 | 0.22795 | 7210 ft | 268 kts | 266° |
| 2026-05-06 04:29 | 51.64956 | 0.19885 | 7089 ft | 257 kts | 266° |
| 2026-05-06 04:29 | 51.64742 | 0.17090 | 6978 ft | 245 kts | 266° |
| 2026-05-06 04:30 | 51.64539 | 0.14423 | 6978 ft | 237 kts | 267° |
| 2026-05-06 04:30 | 51.64380 | 0.11825 | 6978 ft | 236 kts | 269° |
| 2026-05-06 04:30 | 51.64242 | 0.09184 | 6978 ft | 236 kts | 269° |
| 2026-05-06 04:30 | 51.64108 | 0.06567 | 6978 ft | 235 kts | 269° |
| 2026-05-06 04:31 | 51.63970 | 0.03937 | 6978 ft | 236 kts | 269° |
| 2026-05-06 04:31 | 51.63831 | 0.01306 | 6978 ft | 236 kts | 269° |
| 2026-05-06 04:31 | 51.63689 | -0.01321 | 6999 ft | 236 kts | 268° |
| 2026-05-06 04:31 | 51.63544 | -0.03957 | 6996 ft | 236 kts | 268° |
| 2026-05-06 04:32 | 51.63426 | -0.06067 | 6999 ft | 236 kts | 268° |
| 2026-05-06 04:32 | 51.63276 | -0.08696 | 7001 ft | 235 kts | 268° |
| 2026-05-06 04:32 | 51.63127 | -0.11320 | 7001 ft | 236 kts | 268° |
| 2026-05-06 04:32 | 51.62981 | -0.13916 | 7002 ft | 236 kts | 268° |
| 2026-05-06 04:33 | 51.62833 | -0.16546 | 7002 ft | 236 kts | 268° |
| 2026-05-06 04:33 | 51.62682 | -0.19179 | 7002 ft | 236 kts | 268° |
| 2026-05-06 04:33 | 51.62529 | -0.21809 | 7002 ft | 236 kts | 268° |
| 2026-05-06 04:33 | 51.62375 | -0.24429 | 7002 ft | 236 kts | 268° |
| 2026-05-06 04:34 | 51.62222 | -0.27062 | 7002 ft | 236 kts | 268° |
| 2026-05-06 04:34 | 51.62070 | -0.29681 | 7002 ft | 236 kts | 268° |
| 2026-05-06 04:34 | 51.61916 | -0.32312 | 7002 ft | 236 kts | 268° |
| 2026-05-06 04:34 | 51.61763 | -0.34938 | 7002 ft | 236 kts | 268° |
| 2026-05-06 04:35 | 51.61610 | -0.37568 | 7004 ft | 236 kts | 268° |
| 2026-05-06 04:35 | 51.61456 | -0.40190 | 7003 ft | 236 kts | 267° |
| 2026-05-06 04:35 | 51.61301 | -0.42821 | 7002 ft | 236 kts | 268° |
| 2026-05-06 04:35 | 51.61146 | -0.45440 | 7002 ft | 236 kts | 267° |
| 2026-05-06 04:36 | 51.60988 | -0.48071 | 7001 ft | 236 kts | 267° |
| 2026-05-06 04:36 | 51.60830 | -0.50689 | 7001 ft | 236 kts | 267° |
| 2026-05-06 04:36 | 51.60671 | -0.53321 | 6974 ft | 236 kts | 267° |
| 2026-05-06 04:36 | 51.60512 | -0.55938 | 6976 ft | 236 kts | 267° |
| 2026-05-06 04:37 | 51.60350 | -0.58567 | 6977 ft | 236 kts | 267° |
| 2026-05-06 04:37 | 51.60191 | -0.61159 | 6977 ft | 235 kts | 267° |
| 2026-05-06 04:37 | 51.60030 | -0.63783 | 6981 ft | 235 kts | 267° |
| 2026-05-06 04:37 | 51.59869 | -0.66406 | 6849 ft | 237 kts | 267° |
| 2026-05-06 04:38 | 51.59708 | -0.69015 | 6584 ft | 233 kts | 268° |
| 2026-05-06 04:38 | 51.59551 | -0.71609 | 6333 ft | 232 kts | 268° |
| 2026-05-06 04:38 | 51.59394 | -0.74196 | 6097 ft | 232 kts | 268° |
| 2026-05-06 04:38 | 51.59104 | -0.76739 | 5817 ft | 235 kts | 249° |
| 2026-05-06 04:39 | 51.58094 | -0.78775 | 5456 ft | 235 kts | 216° |
| 2026-05-06 04:39 | 51.56565 | -0.79634 | 5133 ft | 238 kts | 183° |
| 2026-05-06 04:39 | 51.54909 | -0.79580 | 4793 ft | 240 kts | 178° |
| 2026-05-06 04:39 | 51.53229 | -0.79480 | 4431 ft | 243 kts | 178° |
| 2026-05-06 04:40 | 51.51530 | -0.79379 | 4085 ft | 245 kts | 177° |
| 2026-05-06 04:40 | 51.49824 | -0.79272 | 3750 ft | 245 kts | 175° |
| 2026-05-06 04:40 | 51.48226 | -0.78489 | 3416 ft | 240 kts | 140° |
| 2026-05-06 04:40 | 51.47318 | -0.76389 | 3116 ft | 228 kts | 101° |
| 2026-05-06 04:41 | 51.47176 | -0.73931 | 2995 ft | 215 kts | 85° |
| 2026-05-06 04:41 | 51.47417 | -0.71672 | 2936 ft | 201 kts | 73° |
| 2026-05-06 04:41 | 51.47605 | -0.69482 | 2730 ft | 201 kts | 83° |
| 2026-05-06 04:41 | 51.47652 | -0.67241 | 2473 ft | 201 kts | 85° |
| 2026-05-06 04:42 | 51.47668 | -0.65034 | 2221 ft | 191 kts | 85° |
| 2026-05-06 04:42 | 51.47678 | -0.62990 | 1949 ft | 176 kts | 85° |
| 2026-05-06 04:42 | 51.47688 | -0.61106 | 1717 ft | 162 kts | 85° |
| 2026-05-06 04:42 | 51.47696 | -0.59367 | 1491 ft | 150 kts | 84° |
| 2026-05-06 04:43 | 51.47704 | -0.57758 | 1305 ft | 140 kts | 85° |
| 2026-05-06 04:43 | 51.47712 | -0.56229 | 1106 ft | 134 kts | 85° |
| 2026-05-06 04:43 | 51.47720 | -0.54738 | 907 ft | 134 kts | 86° |
| 2026-05-06 04:43 | 51.47727 | -0.53243 | 715 ft | 135 kts | 85° |
| 2026-05-06 04:44 | 51.47732 | -0.51724 | 540 ft | 137 kts | 87° |
| 2026-05-06 04:44 | 51.47731 | -0.50206 | 346 ft | 136 kts | 84° |
| 2026-05-06 04:44 | 51.47751 | -0.48685 | 174 ft | 136 kts | 84° |
| 2026-05-06 04:44 | 51.47763 | -0.47210 | 90 ft | 122 kts | 86° |
| 2026-05-06 04:45 | 51.47771 | -0.46105 | 88 ft | 75 kts | 90° |
| 2026-05-06 04:45 | 51.47762 | -0.45540 | 85 ft | 35 kts | 91° |
| 2026-05-06 04:45 | 51.47764 | -0.45176 | 88 ft | 31 kts | 88° |
| 2026-05-06 04:45 | 51.47761 | -0.44962 | 90 ft | 26 kts | 104° |
| 2026-05-06 04:46 | 51.47627 | -0.44777 | 90 ft | 15 kts | 151° |
| 2026-05-06 04:46 | 51.47584 | -0.44663 | 90 ft | 10 kts | 147° |
| 2026-05-06 04:46 | 51.47521 | -0.44632 | 89 ft | 9 kts | 147° |
| 2026-05-06 04:46 | 51.47476 | -0.44571 | 91 ft | 8 kts | 155° |
| 2026-05-06 04:47 | 51.47441 | -0.44560 | 87 ft | 7 kts | 173° |
| 2026-05-06 04:47 | 51.47394 | -0.44560 | 86 ft | 6 kts | 181° |
| 2026-05-06 04:47 | 51.47354 | -0.44561 | 86 ft | 5 kts | 181° |
| 2026-05-06 04:47 | 51.47321 | -0.44561 | 86 ft | 3 kts | 180° |
| 2026-05-06 04:48 | 51.47306 | -0.44562 | 87 ft | 2 kts | 180° |
| 2026-05-06 04:48 | 51.47274 | -0.44562 | 89 ft | 5 kts | 180° |
| 2026-05-06 04:48 | 51.47249 | -0.44575 | 88 ft | 3 kts | 230° |
| 2026-05-06 04:48 | 51.47246 | -0.44601 | 88 ft | 3 kts | 260° |
| 2026-05-06 04:49 | 51.47244 | -0.44644 | 86 ft | 5 kts | 271° |
| 2026-05-06 04:49 | 51.47245 | -0.44692 | 86 ft | 2 kts | 270° |
| 2026-05-06 04:49 | 51.47245 | -0.44694 | 86 ft | 2 kts | 270° |
| 2026-05-06 04:49 | 51.47245 | -0.44707 | 86 ft | 0 kts | 270° |